Time;durP1;ratioP1;P1;durP2;ratioP2;P2;SDS_P1;SDS_P2;PMS_P1;PMS_P2;Temp;Humidity;BMP_temperature;BMP_pressure;BME280_temperature;BME280_humidity;BME280_pressure;Samples;Min_cycle;Max_cycle;Signal;HPM_P1;HPM_P2
2022/10/21 00:00:38;;;;;;;48.70;32.28;;;;;;;28.69;68.10;101026.91;5061478;28;65871;-37
2022/10/21 00:03:09;;;;;;;52.40;33.55;;;;;;;28.77;68.84;101042.94;5061829;28;70434;-37
2022/10/21 00:05:39;;;;;;;48.53;32.17;;;;;;;28.79;69.24;101040.88;5063271;28;66546;-38
2022/10/21 00:08:10;;;;;;;46.63;29.95;;;;;;;28.81;68.77;101060.41;5055292;28;70519;-37
2022/10/21 00:10:43;;;;;;;55.70;31.58;;;;;;;28.87;68.84;101062.28;5061152;28;66276;-37
2022/10/21 00:13:13;;;;;;;42.38;29.58;;;;;;;28.88;69.25;101061.25;5061764;28;70508;-38
2022/10/21 00:15:44;;;;;;;50.65;29.02;;;;;;;28.90;69.44;101075.38;5062156;28;65414;-38
2022/10/21 00:18:14;;;;;;;49.17;27.58;;;;;;;28.92;69.47;101084.13;5062181;28;70202;-38
2022/10/21 00:20:45;;;;;;;39.17;25.63;;;;;;;28.94;69.48;101081.22;5061425;28;66292;-38
2022/10/21 00:23:15;;;;;;;39.90;26.30;;;;;;;28.94;69.33;101089.31;5061610;28;69837;-38
2022/10/21 00:25:46;;;;;;;47.08;26.40;;;;;;;28.93;69.71;101091.19;5062192;28;65649;-37
2022/10/21 00:28:16;;;;;;;62.03;30.75;;;;;;;28.90;70.00;101085.38;5060820;28;69530;-49
2022/10/21 00:30:47;;;;;;;50.90;29.77;;;;;;;28.97;70.44;101097.00;5062585;28;66314;-38
2022/10/21 00:33:18;;;;;;;50.70;31.60;;;;;;;28.74;71.68;101067.63;5062312;28;69913;-39
2022/10/21 00:35:57;;;;;;;45.13;30.40;;;;;;;28.94;73.17;101098.25;5058573;28;65723;-37
2022/10/21 00:38:31;;;;;;;48.35;29.73;;;;;;;28.98;71.40;101108.66;5064116;28;69739;-37
2022/10/21 00:41:02;;;;;;;41.17;30.90;;;;;;;28.96;72.32;101116.94;5061320;28;65408;-38
2022/10/21 00:43:51;;;;;;;46.40;29.57;;;;;;;28.75;74.44;101090.88;5059672;28;69608;-38
2022/10/21 00:46:30;;;;;;;39.35;27.60;;;;;;;28.96;71.86;101106.97;5059826;28;65979;-37
2022/10/21 00:49:05;;;;;;;39.30;26.27;;;;;;;28.47;71.36;101020.78;5058514;28;70563;-35
2022/10/21 00:51:37;;;;;;;38.75;25.45;;;;;;;29.08;70.80;101119.94;5075027;27;66721;-37
2022/10/21 00:54:14;;;;;;;32.70;24.88;;;;;;;29.08;70.67;101111.81;5059098;28;70557;-38
2022/10/21 00:56:46;;;;;;;33.53;24.33;;;;;;;29.15;70.63;101115.41;5060831;28;66265;-38
2022/10/21 00:59:21;;;;;;;36.50;25.02;;;;;;;29.15;70.64;101116.22;5051385;28;70208;-37
2022/10/21 01:01:53;;;;;;;34.65;24.70;;;;;;;29.17;70.26;101116.03;5051811;28;68300;-37
2022/10/21 01:04:23;;;;;;;35.57;23.50;;;;;;;29.20;69.91;101122.88;5061507;28;69988;-38
2022/10/21 01:06:54;;;;;;;35.35;22.60;;;;;;;29.23;69.73;101128.72;5059716;28;65237;-35
2022/10/21 01:09:25;;;;;;;32.20;23.10;;;;;;;29.12;70.08;101110.41;5061418;28;71332;-35
2022/10/21 01:11:56;;;;;;;27.23;22.02;;;;;;;29.27;70.13;101131.84;5061234;28;66144;-37
2022/10/21 01:14:38;;;;;;;30.25;21.08;;;;;;;29.23;69.48;101128.72;5052461;28;70219;-37
2022/10/21 01:17:25;;;;;;;26.73;21.48;;;;;;;28.20;69.43;100961.31;5054836;28;65363;-36
2022/10/21 01:20:21;;;;;;;29.13;22.27;;;;;;;29.30;69.63;101132.25;5060694;28;69936;-36
2022/10/21 01:23:19;;;;;;;27.38;21.98;;;;;;;29.20;69.87;101129.13;5060478;28;66735;-37
2022/10/21 01:26:19;;;;;;;27.13;21.13;;;;;;;29.25;69.45;101132.03;5059161;28;69270;-36
2022/10/21 01:29:01;;;;;;;23.67;21.17;;;;;;;28.95;69.64;101081.03;5061682;28;65400;-37
2022/10/21 01:31:52;;;;;;;24.58;20.63;;;;;;;28.66;69.31;101030.84;5059714;28;69805;-35
2022/10/21 01:34:57;;;;;;;22.92;18.48;;;;;;;29.28;69.27;101142.47;5057094;28;66049;-36
2022/10/21 01:37:34;;;;;;;25.15;19.40;;;;;;;29.39;69.09;101139.16;5060952;28;69689;-37
2022/10/21 01:40:22;;;;;;;25.08;18.48;;;;;;;29.26;69.22;101109.41;5059585;28;66287;-37
2022/10/21 01:42:56;;;;;;;23.85;18.30;;;;;;;29.46;68.78;101144.56;5060707;28;69913;-37
2022/10/21 01:45:47;;;;;;;23.75;18.08;;;;;;;29.48;69.27;101145.22;5060100;28;66139;-37
2022/10/21 01:48:25;;;;;;;20.65;18.67;;;;;;;29.49;68.74;101159.56;5061244;28;69695;-36
2022/10/21 01:51:05;;;;;;;25.20;18.50;;;;;;;29.45;68.74;101131.25;5059307;28;65687;-36
2022/10/21 01:53:44;;;;;;;21.42;17.52;;;;;;;29.50;68.82;101150.41;5060328;28;69303;-37
2022/10/21 01:56:17;;;;;;;20.27;17.98;;;;;;;29.45;68.87;101129.41;5059185;28;66809;-36
2022/10/21 01:58:50;;;;;;;20.73;16.63;;;;;;;29.58;68.65;101163.72;5059947;28;69427;-37
2022/10/21 02:01:36;;;;;;;17.98;16.02;;;;;;;29.02;68.63;101072.09;5047214;28;65371;-36
2022/10/21 02:04:10;;;;;;;20.17;17.20;;;;;;;29.58;68.27;101152.91;5060496;28;69584;-36
2022/10/21 02:06:41;;;;;;;19.38;17.23;;;;;;;29.59;68.87;101149.19;5060604;28;66682;-37
2022/10/21 02:09:12;;;;;;;19.75;17.52;;;;;;;29.65;68.78;101153.78;5059078;28;71485;-37
2022/10/21 02:11:47;;;;;;;18.25;16.45;;;;;;;29.26;68.21;101085.09;5060784;28;66565;-37
2022/10/21 02:14:27;;;;;;;17.77;15.55;;;;;;;29.19;68.29;101081.53;5059743;28;69739;-37
2022/10/21 02:16:59;;;;;;;17.40;15.23;;;;;;;29.27;68.43;101086.75;5060354;28;66179;-37
2022/10/21 02:19:30;;;;;;;;;;;;;;;29.33;70.17;101166.16;5058383;28;69319;-38
2022/10/21 02:22:07;;;;;;;16.30;14.80;;;;;;;29.62;68.56;101156.88;5057386;28;67413;-37
2022/10/21 02:24:57;;;;;;;17.52;15.00;;;;;;;29.71;68.47;101168.38;5061085;28;69495;-46
2022/10/21 02:27:28;;;;;;;16.05;14.45;;;;;;;29.71;68.53;101147.56;5054780;28;66351;-36
2022/10/21 02:30:00;;;;;;;15.65;14.07;;;;;;;29.41;67.80;101103.81;5060442;28;69889;-36
2022/10/21 02:32:35;;;;;;;;;;;;;;;29.46;69.73;101174.31;5059301;28;66776;-37
2022/10/21 02:35:23;;;;;;;15.48;14.13;;;;;;;29.26;68.58;101090.50;5059919;28;70128;-37
2022/10/21 02:38:08;;;;;;;15.65;13.98;;;;;;;29.26;68.13;101078.84;5058818;28;65714;-36
2022/10/21 02:41:01;;;;;;;17.00;14.05;;;;;;;29.77;68.13;101176.47;5058871;28;69203;-35
2022/10/21 02:43:39;;;;;;;14.98;13.60;;;;;;;29.95;67.97;101185.84;5059331;28;66023;-42
2022/10/21 02:46:14;;;;;;;15.20;13.80;;;;;;;29.39;67.28;101078.84;5053356;28;70634;-36
2022/10/21 02:48:46;;;;;;;14.88;13.48;;;;;;;29.73;67.27;101136.56;5059284;28;66439;-36
2022/10/21 02:51:17;;;;;;;14.35;13.13;;;;;;;30.03;67.21;101169.41;5041687;28;70396;-36
2022/10/21 02:53:48;;;;;;;16.33;14.80;;;;;;;30.05;67.67;101170.06;5059587;28;66631;-36
2022/10/21 02:56:21;;;;;;;14.65;13.15;;;;;;;30.08;66.99;101164.22;5059978;28;70691;-36
2022/10/21 02:58:52;;;;;;;15.27;13.73;;;;;;;30.10;67.42;101169.44;5059947;28;65466;-36
2022/10/21 03:01:23;;;;;;;15.37;13.80;;;;;;;30.10;67.29;101155.91;5058188;28;70163;-37
2022/10/21 03:03:53;;;;;;;14.52;13.32;;;;;;;30.16;66.70;101155.91;5055083;28;65958;-37
2022/10/21 03:06:23;;;;;;;14.88;13.52;;;;;;;30.20;66.86;101146.34;5059728;28;69863;-37
2022/10/21 03:08:54;;;;;;;15.15;13.75;;;;;;;30.23;66.90;101151.34;5058800;28;65762;-36
2022/10/21 03:11:25;;;;;;;13.75;12.52;;;;;;;30.27;66.44;101149.88;5059694;28;69851;-36
2022/10/21 03:13:55;;;;;;;13.95;12.88;;;;;;;30.31;66.94;101157.56;5061636;28;66446;-37
2022/10/21 03:16:25;;;;;;;13.77;12.32;;;;;;;30.33;66.50;101155.50;5061808;28;70160;-36
2022/10/21 03:18:56;;;;;;;13.35;12.02;;;;;;;30.34;66.81;101149.03;5064065;28;66644;-37
2022/10/21 03:21:26;;;;;;;15.23;13.15;;;;;;;30.37;66.44;101140.50;5062852;28;69510;-37
2022/10/21 03:23:57;;;;;;;13.00;11.85;;;;;;;30.37;66.67;101137.78;5062236;28;66374;-37
2022/10/21 03:26:27;;;;;;;14.18;12.73;;;;;;;30.41;66.14;101122.81;5062381;28;70700;-37
2022/10/21 03:28:58;;;;;;;13.68;12.27;;;;;;;30.42;66.01;101132.56;5058720;28;66489;-37
2022/10/21 03:31:28;;;;;;;16.35;12.20;;;;;;;30.34;66.46;101108.44;5057983;28;69882;-37
2022/10/21 03:33:58;;;;;;;13.27;12.00;;;;;;;30.47;66.26;101124.66;5050567;28;65420;-37
2022/10/21 03:36:28;;;;;;;12.90;11.65;;;;;;;30.48;65.83;101127.16;5057194;28;69045;-37
2022/10/21 03:38:59;;;;;;;12.77;11.68;;;;;;;30.47;66.08;101119.25;5060099;28;66692;-37
2022/10/21 03:41:29;;;;;;;17.35;11.63;;;;;;;30.51;66.01;101123.22;5054730;28;69907;-37
2022/10/21 03:44:00;;;;;;;13.90;12.60;;;;;;;30.54;65.84;101111.13;5062947;28;66180;-37
2022/10/21 03:46:31;;;;;;;12.75;11.48;;;;;;;30.17;65.93;101052.06;5061544;28;69912;-37
2022/10/21 03:49:02;;;;;;;12.35;11.27;;;;;;;30.53;65.91;101112.97;5062996;28;65729;-37
2022/10/21 03:51:40;;;;;;;12.85;11.80;;;;;;;30.58;65.63;101115.06;5061047;28;70084;-38
2022/10/21 03:54:11;;;;;;;16.23;11.93;;;;;;;30.56;65.71;101100.88;5061828;28;65696;-36
2022/10/21 03:56:41;;;;;;;13.23;12.10;;;;;;;30.61;65.86;101099.22;5060062;28;69893;-37
2022/10/21 03:59:12;;;;;;;11.68;10.77;;;;;;;30.55;65.42;101089.25;5060205;28;66296;-37
2022/10/21 04:01:43;;;;;;;14.18;11.18;;;;;;;30.65;65.43;101094.22;5062858;28;69980;-37
2022/10/21 04:04:13;;;;;;;14.50;10.93;;;;;;;30.56;65.79;101084.66;5059786;28;66572;-36
2022/10/21 04:06:44;;;;;;;11.80;10.60;;;;;;;30.67;65.64;101092.97;5054696;28;70073;-37
2022/10/21 04:09:15;;;;;;;10.93;10.10;;;;;;;30.69;65.87;101080.03;5058237;28;66597;-38
2022/10/21 04:11:45;;;;;;;11.88;10.70;;;;;;;30.66;65.94;101075.03;5059917;28;70875;-37
2022/10/21 04:14:16;;;;;;;11.93;10.85;;;;;;;30.74;65.58;101065.84;5055436;28;66292;-37
2022/10/21 04:16:46;;;;;;;14.30;11.23;;;;;;;30.61;65.50;101045.06;5055828;28;69420;-37
2022/10/21 04:19:31;;;;;;;11.32;10.23;;;;;;;30.77;65.70;101057.28;5056847;28;66730;-35
2022/10/21 04:22:01;;;;;;;11.85;10.88;;;;;;;30.68;65.11;101029.63;5057035;28;69543;-36
2022/10/21 04:24:31;;;;;;;11.85;10.73;;;;;;;30.81;65.40;101045.00;5053419;28;66517;-36
2022/10/21 04:27:02;;;;;;;11.45;10.40;;;;;;;30.81;65.28;101036.88;5060217;28;69965;-36
2022/10/21 04:29:32;;;;;;;13.15;10.32;;;;;;;30.85;65.67;101029.16;5060658;28;65384;-37
2022/10/21 04:32:03;;;;;;;10.90;10.13;;;;;;;30.87;65.28;101027.91;5060097;28;69677;-37
2022/10/21 04:34:33;;;;;;;11.77;10.38;;;;;;;30.89;65.58;101019.53;5058609;28;65916;-37
2022/10/21 04:37:04;;;;;;;11.43;10.35;;;;;;;30.87;65.01;101008.09;5062397;28;69581;-36
2022/10/21 04:39:34;;;;;;;11.88;10.50;;;;;;;30.94;64.93;101000.75;5057084;28;65749;-36
2022/10/21 04:42:05;;;;;;;15.93;10.80;;;;;;;30.92;64.84;101002.84;5059419;28;69943;-36
2022/10/21 04:44:50;;;;;;;12.43;10.45;;;;;;;30.98;64.68;101007.44;5059524;28;66147;-36
2022/10/21 04:47:20;;;;;;;11.18;9.95;;;;;;;31.02;64.88;100999.69;5061030;28;70264;-36
2022/10/21 04:49:50;;;;;;;11.65;10.45;;;;;;;31.03;64.84;100994.03;5061834;28;66679;-36
2022/10/21 04:52:20;;;;;;;10.98;10.05;;;;;;;31.02;65.04;100986.13;5061539;28;69604;-36
2022/10/21 04:54:51;;;;;;;11.57;10.63;;;;;;;30.92;64.76;100964.94;5060524;28;66723;-36
2022/10/21 04:57:22;;;;;;;10.88;9.95;;;;;;;30.96;64.88;100966.16;5062085;28;69899;-36
2022/10/21 04:59:52;;;;;;;12.15;10.93;;;;;;;31.07;64.43;100970.88;5062845;28;66371;-36
2022/10/21 05:02:23;;;;;;;10.93;9.93;;;;;;;31.08;64.24;100969.81;5058900;28;70259;-37
2022/10/21 05:04:54;;;;;;;11.10;10.23;;;;;;;31.07;64.42;100957.34;5062361;28;66023;-36
2022/10/21 05:07:24;;;;;;;12.20;9.90;;;;;;;31.10;64.59;100956.91;5062344;28;70024;-37
2022/10/21 05:09:54;;;;;;;11.88;9.77;;;;;;;31.13;64.12;100948.31;5061511;28;66516;-37
2022/10/21 05:12:26;;;;;;;10.87;9.77;;;;;;;31.03;64.25;100922.75;5061789;28;69958;-37
2022/10/21 05:14:56;;;;;;;10.18;9.38;;;;;;;31.15;64.50;100937.28;5060833;28;66323;-37
2022/10/21 05:17:26;;;;;;;10.75;10.00;;;;;;;31.07;64.14;100916.69;5059284;28;70473;-36
2022/10/21 05:19:57;;;;;;;13.07;9.73;;;;;;;31.21;64.45;100924.72;5060204;28;66559;-37
2022/10/21 05:22:28;;;;;;;11.07;10.10;;;;;;;31.15;64.51;100908.28;5056181;28;69328;-36
2022/10/21 05:24:58;;;;;;;10.75;9.73;;;;;;;31.23;64.09;100917.19;5059066;28;66616;-37
2022/10/21 05:27:28;;;;;;;13.60;8.85;;;;;;;31.22;64.24;100912.81;5058267;28;70454;-37
2022/10/21 05:29:59;;;;;;;10.43;9.02;;;;;;;31.27;64.54;100904.84;5057528;28;65840;-34
2022/10/21 05:32:29;;;;;;;9.85;9.02;;;;;;;31.30;64.08;100918.78;5060355;28;70075;-36
2022/10/21 05:35:00;;;;;;;9.52;8.82;;;;;;;31.26;64.30;100895.06;5056329;28;66218;-36
2022/10/21 05:37:30;;;;;;;9.23;8.52;;;;;;;31.33;63.87;100907.50;5060097;28;71049;-36
2022/10/21 05:40:03;;;;;;;9.82;9.02;;;;;;;31.35;64.39;100899.16;5061597;28;66058;-37
2022/10/21 05:42:33;;;;;;;10.30;8.80;;;;;;;31.36;64.05;100895.41;5058390;28;69590;-36
2022/10/21 05:45:05;;;;;;;9.85;8.95;;;;;;;31.35;64.17;100888.31;5058337;28;65982;-36
2022/10/21 05:47:35;;;;;;;9.18;8.32;;;;;;;31.02;64.11;100840.66;5061449;28;69969;-35
2022/10/21 05:50:06;;;;;;;9.77;9.00;;;;;;;31.41;64.22;100887.44;5061328;28;66271;-37
2022/10/21 05:52:38;;;;;;;9.80;8.93;;;;;;;31.40;63.93;100885.78;5059933;28;69505;-37
2022/10/21 05:55:09;;;;;;;14.80;9.60;;;;;;;31.43;64.19;100879.09;5058249;28;65978;-37
2022/10/21 05:57:40;;;;;;;10.70;8.35;;;;;;;31.44;63.43;100865.31;5060186;28;69971;-37
2022/10/21 06:00:11;;;;;;;9.63;8.90;;;;;;;31.47;63.67;100858.59;5059275;28;65993;-37
2022/10/21 06:02:41;;;;;;;9.00;8.50;;;;;;;31.09;63.63;100784.56;5060943;28;70049;-37
2022/10/21 06:05:12;;;;;;;8.57;7.97;;;;;;;31.51;63.58;100852.53;5059776;28;65713;-36
2022/10/21 06:07:43;;;;;;;9.87;9.07;;;;;;;31.54;63.58;100851.25;5061041;28;70859;-37
2022/10/21 06:10:15;;;;;;;9.15;8.38;;;;;;;31.55;63.70;100845.56;5059985;28;66456;-36
2022/10/21 06:12:45;;;;;;;9.25;8.55;;;;;;;31.57;63.42;100832.63;5060608;28;70240;-37
2022/10/21 06:15:16;;;;;;;9.90;7.93;;;;;;;31.60;63.26;100834.06;5060798;28;66556;-36
2022/10/21 06:17:46;;;;;;;10.18;7.93;;;;;;;31.61;63.48;100833.00;5054015;28;70283;-37
2022/10/21 06:20:20;;;;;;;8.48;7.82;;;;;;;31.55;63.21;100818.47;5053538;28;65441;-37
2022/10/21 06:22:51;;;;;;;9.48;8.50;;;;;;;31.66;63.63;100829.63;5060142;28;70671;-37
2022/10/21 06:25:22;;;;;;;8.10;7.45;;;;;;;31.68;63.22;100816.63;5061415;28;66714;-37
2022/10/21 06:27:53;;;;;;;8.60;7.90;;;;;;;31.69;62.94;100810.19;5058068;28;70762;-37
2022/10/21 06:30:23;;;;;;;8.70;8.00;;;;;;;31.73;63.57;100814.09;5064853;28;65741;-36
2022/10/21 06:32:54;;;;;;;8.23;7.55;;;;;;;31.41;63.22;100751.91;5062530;27;70177;-35
2022/10/21 06:35:24;;;;;;;8.20;7.60;;;;;;;31.77;63.46;100799.84;5059427;28;66204;-36
2022/10/21 06:37:54;;;;;;;8.70;7.80;;;;;;;31.80;63.10;100791.25;5058809;28;70186;-38
2022/10/21 06:40:25;;;;;;;8.02;7.43;;;;;;;31.85;63.39;100795.19;5060714;28;64950;-37
2022/10/21 06:42:55;;;;;;;8.35;7.63;;;;;;;31.88;62.81;100794.72;5053028;28;69648;-37
2022/10/21 06:45:25;;;;;;;8.43;7.63;;;;;;;31.91;62.97;100792.41;5060468;28;66054;-37
2022/10/21 06:47:58;;;;;;;9.85;8.07;;;;;;;31.92;63.15;100794.03;5060463;28;70627;-37
2022/10/21 06:50:29;;;;;;;9.02;8.23;;;;;;;31.96;62.86;100787.09;5058986;28;66466;-36
2022/10/21 06:53:01;;;;;;;8.75;8.15;;;;;;;31.98;62.63;100785.00;5060114;28;69987;-37
2022/10/21 06:55:32;;;;;;;9.68;7.85;;;;;;;32.02;62.91;100780.75;5059558;28;66370;-37
2022/10/21 06:58:02;;;;;;;8.48;7.70;;;;;;;32.04;62.59;100765.09;5059055;28;69794;-37
2022/10/21 07:00:33;;;;;;;11.80;8.07;;;;;;;32.06;62.48;100770.25;5059476;28;65232;-37
2022/10/21 07:03:03;;;;;;;9.23;8.35;;;;;;;32.08;62.31;100753.75;5059503;28;71680;-37
2022/10/21 07:05:33;;;;;;;12.05;7.40;;;;;;;32.13;62.72;100753.91;5059781;28;67074;-38
2022/10/21 07:08:06;;;;;;;8.70;7.53;;;;;;;32.19;62.12;100752.97;5059448;28;70539;-36
2022/10/21 07:10:43;;;;;;;8.00;7.28;;;;;;;32.22;62.28;100747.88;5054580;28;65756;-36
2022/10/21 07:13:14;;;;;;;8.45;7.68;;;;;;;32.23;62.08;100751.44;5052110;28;69632;-36
2022/10/21 07:15:44;;;;;;;10.93;7.85;;;;;;;32.27;62.03;100741.78;5055249;28;66449;-36
2022/10/21 07:18:14;;;;;;;10.63;7.43;;;;;;;32.32;62.10;100736.47;5055314;28;69685;-37
2022/10/21 07:20:45;;;;;;;8.05;7.40;;;;;;;32.30;62.17;100727.72;5055795;28;66106;-36
2022/10/21 07:23:15;;;;;;;7.45;6.85;;;;;;;32.39;61.98;100734.47;5061375;28;70385;-37
2022/10/21 07:25:46;;;;;;;7.80;7.20;;;;;;;32.44;61.68;100728.34;5062202;28;65313;-37
2022/10/21 07:28:16;;;;;;;8.48;7.20;;;;;;;32.37;61.95;100705.91;5061357;28;70164;-37
2022/10/21 07:30:48;;;;;;;8.63;6.85;;;;;;;32.41;61.63;100702.50;5057102;28;65683;-37
2022/10/21 07:33:19;;;;;;;7.53;6.90;;;;;;;32.56;61.82;100717.50;5058965;28;70430;-37
2022/10/21 07:35:49;;;;;;;7.80;6.70;;;;;;;32.59;61.79;100714.31;5052234;28;66652;-36
2022/10/21 07:38:22;;;;;;;6.75;6.35;;;;;;;32.65;61.55;100714.22;5053731;28;70302;-37
2022/10/21 07:40:53;;;;;;;8.82;6.30;;;;;;;32.34;61.23;100642.03;5057133;28;66403;-37
2022/10/21 07:43:33;;;;;;;7.88;6.45;;;;;;;32.74;61.41;100701.09;5055901;28;69305;-36
2022/10/21 07:46:03;;;;;;;6.97;6.40;;;;;;;32.80;61.34;100702.03;5055825;28;66743;-36
2022/10/21 07:48:35;;;;;;;7.22;6.57;;;;;;;32.82;61.58;100703.47;5054918;28;70532;-37
2022/10/21 07:51:09;;;;;;;6.50;5.97;;;;;;;32.77;61.25;100683.50;5052914;28;66653;-36
2022/10/21 07:53:40;;;;;;;7.53;6.88;;;;;;;32.80;61.28;100683.84;5052728;28;70548;-35
2022/10/21 07:56:23;;;;;;;6.50;6.07;;;;;;;32.94;60.92;100708.88;5056504;28;66909;-36
2022/10/21 07:58:54;;;;;;;6.30;5.82;;;;;;;32.97;60.91;100696.72;5055411;28;70425;-37
2022/10/21 08:01:24;;;;;;;9.40;6.15;;;;;;;32.96;60.93;100693.16;5059023;28;66101;-37
2022/10/21 08:03:56;;;;;;;6.43;5.82;;;;;;;32.88;61.07;100672.63;5058799;28;70075;-36
2022/10/21 08:06:27;;;;;;;7.03;6.32;;;;;;;33.01;60.91;100692.47;5050873;28;65719;-36
2022/10/21 08:08:58;;;;;;;8.90;6.47;;;;;;;33.04;61.02;100694.69;5051633;28;69874;-36
2022/10/21 08:11:31;;;;;;;7.93;6.47;;;;;;;32.99;60.78;100683.69;5053509;28;65926;-36
2022/10/21 08:14:03;;;;;;;6.65;6.05;;;;;;;33.12;60.60;100697.03;5056743;28;70128;-37
2022/10/21 08:16:35;;;;;;;9.80;5.80;;;;;;;33.19;60.62;100686.06;5053558;28;66795;-36
2022/10/21 08:19:06;;;;;;;5.93;5.53;;;;;;;32.87;60.60;100638.34;5051487;28;69251;-36
2022/10/21 08:21:37;;;;;;;10.40;6.30;;;;;;;33.12;60.61;100684.28;5056444;28;66241;-37
2022/10/21 08:24:07;;;;;;;7.10;5.82;;;;;;;33.28;59.96;100695.47;5061823;28;70046;-36
2022/10/21 08:26:38;;;;;;;7.00;6.13;;;;;;;33.30;60.45;100693.34;5057194;28;66721;-35
2022/10/21 08:29:08;;;;;;;6.57;5.30;;;;;;;33.32;60.24;100697.47;5055115;28;70127;-36
2022/10/21 08:31:39;;;;;;;6.15;5.55;;;;;;;33.34;60.12;100692.59;5059580;28;66010;-37
2022/10/21 08:34:10;;;;;;;6.63;5.35;;;;;;;33.34;60.24;100698.03;5057865;28;69987;-36
2022/10/21 08:36:41;;;;;;;5.95;5.28;;;;;;;33.32;60.44;100694.75;5055980;28;65071;-37
2022/10/21 08:39:11;;;;;;;5.57;5.07;;;;;;;33.41;60.56;100697.91;5056481;28;70058;-37
2022/10/21 08:41:48;;;;;;;6.95;5.65;;;;;;;33.43;59.27;100719.41;5056603;28;66233;-37
2022/10/21 08:44:26;;;;;;;6.07;5.55;;;;;;;33.48;59.79;100716.81;5055271;28;70282;-36
2022/10/21 08:47:10;;;;;;;5.95;5.38;;;;;;;33.48;59.65;100716.81;5057214;28;66107;-37
2022/10/21 08:50:14;;;;;;;7.75;5.43;;;;;;;33.40;59.30;100714.47;5056861;28;70056;-36
2022/10/21 08:52:47;;;;;;;9.18;4.78;;;;;;;33.51;60.06;100721.75;5056713;28;65637;-36
2022/10/21 08:55:34;;;;;;;7.65;5.20;;;;;;;33.40;59.47;100704.41;5059684;28;69896;-35
2022/10/21 08:58:10;;;;;;;5.10;4.70;;;;;;;33.55;59.34;100731.13;5059755;28;67056;-36
2022/10/21 09:00:53;;;;;;;7.30;4.90;;;;;;;33.12;58.82;100664.44;5048882;28;71036;-36
2022/10/21 09:03:53;;;;;;;12.20;5.13;;;;;;;33.56;59.07;100740.94;5062501;28;64652;-37
2022/10/21 09:06:47;;;;;;;6.70;4.55;;;;;;;33.53;59.08;100752.28;5060464;28;70228;-37
2022/10/21 09:09:51;;;;;;;6.13;4.78;;;;;;;33.49;59.06;100759.22;5058731;28;66038;-37
2022/10/21 09:12:43;;;;;;;19.33;5.40;;;;;;;33.10;58.95;100699.19;5057541;28;69618;-37
2022/10/21 09:15:33;;;;;;;13.10;5.43;;;;;;;33.19;59.00;100707.81;5061761;28;65854;-36
2022/10/21 09:18:06;;;;;;;5.88;4.90;;;;;;;33.26;60.23;100773.72;5059984;28;70156;-38
2022/10/21 09:21:00;;;;;;;9.82;5.18;;;;;;;32.85;61.30;100768.19;5061017;28;65538;-37
2022/10/21 09:23:45;;;;;;;;;;;;;;;32.52;63.27;100784.22;5057498;28;70264;-36
2022/10/21 09:26:47;;;;;;;10.37;4.87;;;;;;;32.61;63.36;100788.25;5059275;28;66708;-37
2022/10/21 09:29:58;;;;;;;10.40;4.80;;;;;;;32.40;63.76;100793.16;5066321;28;69817;-36
2022/10/21 09:32:38;;;;;;;8.60;5.28;;;;;;;32.49;63.56;100791.78;5000379;28;65451;-36
2022/10/21 09:35:33;;;;;;;7.53;4.65;;;;;;;32.41;64.15;100794.78;5065189;27;70658;-37
2022/10/21 09:38:25;;;;;;;11.75;5.10;;;;;;;32.00;64.49;100739.47;5061451;28;43104;-36
2022/10/21 09:41:33;;;;;;;5.13;4.63;;;;;;;32.16;64.75;100775.16;5064486;28;70082;-37
2022/10/21 09:44:03;;;;;;;11.88;5.53;;;;;;;32.30;65.07;100797.50;5056641;28;65577;-37
2022/10/21 09:46:33;;;;;;;10.55;4.85;;;;;;;32.29;65.38;100799.38;5055966;28;70405;-37
2022/10/21 09:49:04;;;;;;;6.25;5.65;;;;;;;32.27;65.39;100798.78;5062236;28;65842;-36
2022/10/21 09:51:57;;;;;;;10.73;5.68;;;;;;;32.25;65.26;100809.03;5053575;28;69665;-37
2022/10/21 09:54:36;;;;;;;11.65;5.60;;;;;;;32.25;65.12;100811.75;5052193;28;66340;-37
2022/10/21 09:57:28;;;;;;;11.52;5.30;;;;;;;31.65;65.16;100730.31;5051606;28;70462;-38
2022/10/21 10:00:03;;;;;;;7.90;4.68;;;;;;;32.19;65.13;100824.34;5055245;28;65207;-35
2022/10/21 10:02:45;;;;;;;9.32;5.50;;;;;;;31.68;65.09;100748.84;5049951;28;70335;-35
2022/10/21 10:05:37;;;;;;;5.55;5.03;;;;;;;32.04;65.64;100826.66;5043604;28;65625;-37
2022/10/21 10:08:25;;;;;;;;;;;;;;;31.85;66.36;100833.16;5047246;28;69818;-36
2022/10/21 10:11:13;;;;;;;12.40;5.75;;;;;;;31.53;65.92;100754.69;5054184;28;65824;-37
2022/10/21 10:13:51;;;;;;;7.30;5.93;;;;;;;32.03;65.96;100835.84;5053953;27;68657;-37
2022/10/21 10:16:32;;;;;;;6.32;5.72;;;;;;;31.95;65.75;100834.28;5057522;28;64797;-36
2022/10/21 10:19:26;;;;;;;8.98;6.65;;;;;;;31.93;65.59;100841.81;5055165;28;69254;-36
2022/10/21 10:22:17;;;;;;;13.00;6.10;;;;;;;31.89;66.04;100835.16;5048771;28;66706;-37
2022/10/21 10:24:47;;;;;;;13.25;7.20;;;;;;;31.93;66.28;100830.97;5051718;28;69296;-36
2022/10/21 10:27:22;;;;;;;10.02;7.18;;;;;;;31.87;66.28;100826.41;5052607;28;66215;-37
2022/10/21 10:29:55;;;;;;;11.90;7.25;;;;;;;31.66;66.36;100791.66;5052831;28;71381;-37
2022/10/21 10:32:31;;;;;;;9.65;6.57;;;;;;;31.92;66.48;100851.00;5053994;28;66418;-36
2022/10/21 10:35:05;;;;;;;12.35;7.15;;;;;;;32.12;65.54;100845.31;5057842;28;69900;-37
2022/10/21 10:37:37;;;;;;;7.82;7.18;;;;;;;32.28;64.91;100852.00;5057249;28;65748;-37
2022/10/21 10:40:09;;;;;;;12.48;7.95;;;;;;;32.44;64.71;100880.38;5059053;28;70907;-37
2022/10/21 10:42:45;;;;;;;13.88;7.57;;;;;;;32.11;64.28;100821.13;5058916;28;65596;-38
2022/10/21 10:45:21;;;;;;;9.35;7.13;;;;;;;32.14;63.83;100828.81;5050003;28;70221;-37
2022/10/21 10:48:02;;;;;;;13.13;7.45;;;;;;;32.57;63.89;100890.22;5055504;28;65725;-37
2022/10/21 10:50:41;;;;;;;13.02;7.70;;;;;;;32.61;63.92;100892.25;5055614;28;69919;-37
2022/10/21 10:53:34;;;;;;;8.07;7.38;;;;;;;32.61;63.75;100891.44;5054161;28;64780;-37
2022/10/21 10:56:19;;;;;;;18.35;8.07;;;;;;;32.64;63.70;100904.56;5052429;28;69929;-37
2022/10/21 10:59:10;;;;;;;21.13;9.20;;;;;;;32.55;63.76;100905.94;5055010;28;65452;-37
2022/10/21 11:01:56;;;;;;;20.38;8.50;;;;;;;32.57;63.85;100910.09;5052326;28;70230;-37
2022/10/21 11:04:48;;;;;;;15.15;8.88;;;;;;;32.63;63.29;100917.31;5058281;28;66012;-38
2022/10/21 11:07:43;;;;;;;16.55;8.98;;;;;;;32.54;63.58;100924.13;5049557;28;70143;-36
2022/10/21 11:10:38;;;;;;;13.43;9.30;;;;;;;32.65;63.54;100934.22;5052864;28;64733;-37
2022/10/21 11:13:22;;;;;;;14.00;9.43;;;;;;;32.58;63.68;100935.34;5053808;28;70696;-38
2022/10/21 11:15:58;;;;;;;13.57;8.60;;;;;;;32.64;63.81;100934.44;5049002;28;66661;-37
2022/10/21 11:18:58;;;;;;;14.52;9.23;;;;;;;32.54;64.35;100939.56;5053643;28;69924;-37
2022/10/21 11:21:38;;;;;;;15.90;11.35;;;;;;;32.63;64.04;100943.66;5028517;28;66572;-36
2022/10/21 11:24:34;;;;;;;17.95;12.43;;;;;;;32.47;64.49;100937.78;5050418;28;70272;-36
2022/10/21 11:27:50;;;;;;;18.60;14.02;;;;;;;32.49;65.15;100956.59;5050665;28;66470;-36
2022/10/21 11:30:48;;;;;;;23.52;13.90;;;;;;;32.19;65.12;100904.94;5051945;28;70237;-38
2022/10/21 11:33:41;;;;;;;19.33;13.40;;;;;;;32.45;65.43;100977.88;5055305;28;65687;-38
2022/10/21 11:37:01;;;;;;;17.90;13.77;;;;;;;32.45;65.75;100975.16;5048607;28;70492;-38
2022/10/21 11:39:53;;;;;;;17.70;13.23;;;;;;;32.45;65.81;100975.16;5055521;28;66468;-37
2022/10/21 11:42:33;;;;;;;18.52;10.93;;;;;;;31.66;67.78;100895.53;5034365;28;69259;-37
2022/10/21 11:45:42;;;;;;;11.80;10.63;;;;;;;32.02;68.41;100992.41;5054844;28;66737;-37
2022/10/21 11:48:56;;;;;;;13.35;10.10;;;;;;;31.06;68.97;100855.41;5052204;28;70308;-38
2022/10/21 11:51:35;;;;;;;12.63;10.38;;;;;;;31.94;69.62;101006.25;5049185;28;66386;-37
2022/10/21 11:54:31;;;;;;;10.65;9.48;;;;;;;31.90;69.66;101010.44;5053118;28;69916;-37
2022/10/21 11:57:11;;;;;;;13.35;9.98;;;;;;;31.89;69.88;101013.38;5055022;28;66282;-37
2022/10/21 12:00:11;;;;;;;15.90;10.05;;;;;;;31.72;70.08;100997.69;5056311;28;70314;-37